Time;durP1;ratioP1;P1;durP2;ratioP2;P2;SDS_P1;SDS_P2;PMS_P1;PMS_P2;Temp;Humidity;BMP_temperature;BMP_pressure;BME280_temperature;BME280_humidity;BME280_pressure;Samples;Min_cycle;Max_cycle;Signal;HPM_P1;HPM_P2
2021/10/14 00:01:46;;;;;;;;;;;11.80;99.90;;;;;;4965189;28;20290;-82
2021/10/14 00:04:15;;;;;;;;;;;11.70;99.90;;;;;;4970584;28;21554;-82
2021/10/14 00:06:40;;;;;;;;;;;11.70;99.90;;;;;;4939198;28;19911;-82
2021/10/14 00:09:06;;;;;;;;;;;11.70;99.90;;;;;;4954461;29;19944;-81
2021/10/14 00:11:31;;;;;;;;;;;11.70;99.90;;;;;;4961775;28;19936;-81
2021/10/14 00:13:57;;;;;;;;;;;11.70;99.90;;;;;;4973553;28;19917;-82
2021/10/14 00:16:22;;;;;;;;;;;11.70;99.90;;;;;;4961264;28;19911;-82
2021/10/14 00:18:48;;;;;;;;;;;11.60;99.90;;;;;;4972770;28;19914;-82
2021/10/14 00:21:13;;;;;;;;;;;11.50;99.90;;;;;;4964453;28;19917;-82
2021/10/14 00:23:39;;;;;;;;;;;11.60;99.90;;;;;;4962611;28;19925;-81
2021/10/14 00:26:04;;;;;;;;;;;11.60;99.90;;;;;;4953572;28;20453;-82
2021/10/14 00:28:30;;;;;;;;;;;11.60;99.90;;;;;;4953247;28;19914;-82
2021/10/14 00:30:55;;;;;;;;;;;11.60;99.90;;;;;;4943875;28;20362;-82
2021/10/14 00:33:21;;;;;;;;;;;11.60;99.90;;;;;;4960467;28;19934;-82
2021/10/14 00:35:46;;;;;;;;;;;11.60;75.30;;;;;;4972309;28;19918;-82
2021/10/14 00:38:12;;;;;;;;;;;11.60;53.60;;;;;;4963622;28;19997;-82
2021/10/14 00:40:37;;;;;;;;;;;11.60;54.10;;;;;;4970855;28;19914;-82
2021/10/14 00:43:03;;;;;;;;;;;11.60;22.60;;;;;;4965386;28;20306;-82
2021/10/14 00:45:28;;;;;;;;;;;11.60;3.20;;;;;;4953349;29;20290;-82
2021/10/14 00:47:55;;;;;;;;;;;11.60;1.00;;;;;;4943754;28;19910;-82
2021/10/14 00:50:20;;;;;;;;;;;11.50;1.00;;;;;;4967837;28;19991;-82
2021/10/14 00:52:46;;;;;;;;;;;11.50;1.00;;;;;;4946666;28;19911;-81
2021/10/14 00:55:12;;;;;;;;;;;11.50;1.00;;;;;;4969344;28;19948;-81
2021/10/14 00:57:38;;;;;;;;;;;11.50;4.70;;;;;;4969421;28;20298;-82
2021/10/14 01:00:04;;;;;;;;;;;11.50;1.00;;;;;;4966409;28;19914;-81
2021/10/14 01:02:29;;;;;;;;;;;11.50;1.00;;;;;;4955800;28;19915;-82
2021/10/14 01:04:55;;;;;;;;;;;11.50;1.00;;;;;;4967180;28;19942;-82
2021/10/14 01:07:22;;;;;;;;;;;11.50;1.00;;;;;;4958635;28;19918;-82
2021/10/14 01:09:47;;;;;;;;;;;11.50;1.00;;;;;;4969016;28;19919;-82
2021/10/14 01:12:13;;;;;;;;;;;11.50;1.00;;;;;;4967889;28;20301;-82
2021/10/14 01:14:38;;;;;;;;;;;11.50;1.00;;;;;;4967558;28;20058;-82
2021/10/14 01:17:04;;;;;;;;;;;11.50;1.00;;;;;;4954158;28;19914;-82
2021/10/14 01:19:29;;;;;;;;;;;11.50;1.00;;;;;;4965613;28;20317;-82
2021/10/14 01:21:55;;;;;;;;;;;11.50;1.00;;;;;;4943225;28;19946;-82
2021/10/14 01:24:20;;;;;;;;;;;11.50;1.00;;;;;;4968819;28;19921;-82
2021/10/14 01:26:46;;;;;;;;;;;11.50;1.00;;;;;;4974813;28;19965;-82
2021/10/14 01:29:11;;;;;;;;;;;11.50;1.00;;;;;;4968168;28;19921;-82
2021/10/14 01:31:37;;;;;;;;;;;11.50;1.00;;;;;;4973848;28;19914;-81
2021/10/14 01:34:03;;;;;;;;;;;11.50;1.00;;;;;;4941938;28;19911;-82
2021/10/14 01:36:29;;;;;;;;;;;11.50;1.00;;;;;;4956450;29;19964;-82
2021/10/14 01:38:54;;;;;;;;;;;11.50;1.00;;;;;;4960875;28;19922;-82
2021/10/14 01:41:20;;;;;;;;;;;11.50;1.00;;;;;;4959880;28;19914;-82
2021/10/14 01:43:46;;;;;;;;;;;11.50;1.00;;;;;;4964260;28;19987;-82
2021/10/14 01:46:12;;;;;;;;;;;11.50;1.00;;;;;;4961066;28;20018;-82
2021/10/14 01:48:37;;;;;;;;;;;11.50;1.00;;;;;;4959803;28;19919;-82
2021/10/14 01:51:03;;;;;;;;;;;11.50;1.00;;;;;;4967669;28;20008;-82
2021/10/14 01:53:29;;;;;;;;;;;11.50;99.90;;;;;;4964977;28;19924;-82
2021/10/14 01:55:54;;;;;;;;;;;11.50;99.90;;;;;;4970386;28;19914;-82
2021/10/14 01:58:20;;;;;;;;;;;11.50;99.90;;;;;;4963489;28;20434;-82
2021/10/14 02:00:47;;;;;;;;;;;11.50;99.90;;;;;;4957687;28;20369;-82
2021/10/14 02:03:12;;;;;;;;;;;11.50;99.90;;;;;;4963682;28;20017;-82
2021/10/14 02:05:38;;;;;;;;;;;11.50;99.90;;;;;;4956248;28;19950;-82
2021/10/14 02:08:03;;;;;;;;;;;11.50;99.90;;;;;;4963479;28;19964;-82
2021/10/14 02:10:29;;;;;;;;;;;11.50;99.90;;;;;;4946329;28;20304;-82
2021/10/14 02:12:55;;;;;;;;;;;11.50;99.90;;;;;;4955980;28;19910;-81
2021/10/14 02:15:20;;;;;;;;;;;11.50;99.90;;;;;;4963574;28;19965;-82
2021/10/14 02:17:46;;;;;;;;;;;11.50;99.90;;;;;;4957329;28;20290;-82
2021/10/14 02:20:11;;;;;;;;;;;11.50;99.90;;;;;;4960941;28;20401;-81
2021/10/14 02:22:37;;;;;;;;;;;11.50;99.90;;;;;;4975270;28;19910;-81
2021/10/14 02:25:03;;;;;;;;;;;11.40;99.90;;;;;;4961847;28;20009;-81
2021/10/14 02:27:29;;;;;;;;;;;11.40;99.90;;;;;;4966602;28;19918;-81
2021/10/14 02:29:54;;;;;;;;;;;11.40;1.00;;;;;;4971835;28;19910;-81
2021/10/14 02:32:19;;;;;;;;;;;11.30;1.00;;;;;;4971840;28;19937;-81
2021/10/14 02:34:45;;;;;;;;;;;11.20;5.40;;;;;;4960807;28;19917;-81
2021/10/14 02:37:10;;;;;;;;;;;11.20;71.80;;;;;;4957059;28;19915;-81
2021/10/14 02:39:36;;;;;;;;;;;11.10;99.90;;;;;;4965586;28;20390;-81
2021/10/14 02:42:01;;;;;;;;;;;11.00;99.90;;;;;;4960914;28;19914;-81
2021/10/14 02:44:27;;;;;;;;;;;11.00;99.90;;;;;;4943683;29;19961;-81
2021/10/14 02:46:53;;;;;;;;;;;11.00;99.90;;;;;;4962885;28;19914;-81
2021/10/14 02:49:19;;;;;;;;;;;10.90;99.90;;;;;;4944260;29;20035;-81
2021/10/14 02:51:44;;;;;;;;;;;10.90;99.90;;;;;;4961349;28;20378;-81
2021/10/14 02:54:10;;;;;;;;;;;10.90;99.90;;;;;;4961800;28;19925;-82
2021/10/14 02:56:36;;;;;;;;;;;10.90;99.90;;;;;;4959776;28;19967;-81
2021/10/14 02:59:01;;;;;;;;;;;10.90;99.90;;;;;;4962243;28;19921;-81
2021/10/14 03:01:26;;;;;;;;;;;10.90;30.20;;;;;;4962383;28;19935;-81
2021/10/14 03:03:52;;;;;;;;;;;10.90;1.00;;;;;;4965387;28;19915;-81
2021/10/14 03:06:17;;;;;;;;;;;10.90;1.00;;;;;;4955693;29;19922;-81
2021/10/14 03:08:43;;;;;;;;;;;10.90;1.00;;;;;;4973501;28;19960;-81
2021/10/14 03:11:08;;;;;;;;;;;11.00;1.00;;;;;;4962874;28;19919;-81
2021/10/14 03:13:34;;;;;;;;;;;11.00;1.00;;;;;;4972117;28;19916;-81
2021/10/14 03:15:59;;;;;;;;;;;11.00;1.00;;;;;;4960543;28;19914;-81
2021/10/14 03:18:25;;;;;;;;;;;10.90;1.00;;;;;;4959324;28;19950;-81
2021/10/14 03:20:50;;;;;;;;;;;10.90;1.00;;;;;;4956811;28;19918;-81
2021/10/14 03:23:15;;;;;;;;;;;11.00;1.00;;;;;;4960401;28;20004;-81
2021/10/14 03:25:41;;;;;;;;;;;10.90;1.00;;;;;;4944722;28;19914;-81
2021/10/14 03:28:06;;;;;;;;;;;10.90;1.00;;;;;;4967811;28;19965;-81
2021/10/14 03:30:32;;;;;;;;;;;11.00;1.00;;;;;;4963365;28;19914;-81
2021/10/14 03:32:57;;;;;;;;;;;10.90;1.00;;;;;;4962713;28;19986;-81
2021/10/14 03:35:23;;;;;;;;;;;11.00;1.00;;;;;;4953505;28;20001;-81
2021/10/14 03:37:48;;;;;;;;;;;10.90;1.00;;;;;;4973595;28;20374;-81
2021/10/14 03:40:14;;;;;;;;;;;10.90;1.00;;;;;;4965479;28;19921;-81
2021/10/14 03:42:39;;;;;;;;;;;11.00;1.00;;;;;;4962846;28;19911;-81
2021/10/14 03:45:05;;;;;;;;;;;11.00;1.00;;;;;;4953732;28;19921;-81
2021/10/14 03:47:31;;;;;;;;;;;11.00;1.00;;;;;;4969464;28;19918;-81
2021/10/14 03:49:56;;;;;;;;;;;11.00;1.00;;;;;;4968890;28;20563;-81
2021/10/14 03:52:22;;;;;;;;;;;11.00;1.00;;;;;;4962227;28;19911;-81
2021/10/14 03:54:47;;;;;;;;;;;11.00;1.00;;;;;;4970961;28;19911;-81
2021/10/14 03:57:13;;;;;;;;;;;11.00;1.00;;;;;;4962636;28;19910;-81
2021/10/14 03:59:38;;;;;;;;;;;11.00;1.00;;;;;;4966174;28;19953;-81
2021/10/14 04:02:04;;;;;;;;;;;11.00;1.00;;;;;;4972775;28;19917;-81
2021/10/14 04:04:29;;;;;;;;;;;11.00;1.00;;;;;;4951931;28;20011;-81
2021/10/14 04:06:54;;;;;;;;;;;10.90;1.00;;;;;;4960467;28;19980;-81
2021/10/14 04:09:20;;;;;;;;;;;11.00;1.00;;;;;;4962074;28;19925;-81
2021/10/14 04:11:45;;;;;;;;;;;10.90;1.00;;;;;;4961671;28;19921;-82
2021/10/14 04:14:11;;;;;;;;;;;11.00;1.00;;;;;;4944115;28;19964;-81
2021/10/14 04:16:37;;;;;;;;;;;11.00;1.00;;;;;;4945477;29;19911;-81
2021/10/14 04:19:02;;;;;;;;;;;11.00;1.00;;;;;;4954992;28;19922;-81
2021/10/14 04:21:27;;;;;;;;;;;11.00;1.00;;;;;;4962041;28;19958;-81
2021/10/14 04:23:55;;;;;;;;;;;11.00;1.00;;;;;;4965648;28;19925;-81
2021/10/14 04:26:21;;;;;;;;;;;11.00;1.00;;;;;;4958815;28;19915;-81
2021/10/14 04:28:46;;;;;;;;;;;10.90;77.50;;;;;;4948119;28;19925;-81
2021/10/14 04:31:13;;;;;;;;;;;10.90;99.90;;;;;;4951602;29;19956;-81
2021/10/14 04:33:38;;;;;;;;;;;10.90;99.90;;;;;;4945904;28;19968;-81
2021/10/14 04:36:04;;;;;;;;;;;10.90;99.90;;;;;;4941498;28;19919;-81
2021/10/14 04:38:30;;;;;;;;;;;10.90;99.90;;;;;;4970254;28;19945;-81
2021/10/14 04:40:56;;;;;;;;;;;10.90;99.90;;;;;;4938734;28;19911;-81
2021/10/14 04:43:23;;;;;;;;;;;10.80;99.90;;;;;;4968272;28;20317;-81
2021/10/14 04:45:51;;;;;;;;;;;10.80;99.90;;;;;;4957934;28;20416;-81
2021/10/14 04:48:17;;;;;;;;;;;10.80;99.90;;;;;;4967198;28;19919;-81
2021/10/14 04:50:42;;;;;;;;;;;10.80;99.90;;;;;;4940988;29;19910;-81
2021/10/14 04:53:08;;;;;;;;;;;10.80;99.90;;;;;;4967098;28;19918;-81
2021/10/14 04:55:33;;;;;;;;;;;10.80;99.90;;;;;;4950066;28;19914;-81
2021/10/14 04:57:59;;;;;;;;;;;10.80;99.90;;;;;;4962848;28;20390;-81
2021/10/14 05:00:25;;;;;;;;;;;10.80;99.90;;;;;;4958092;28;19919;-81
2021/10/14 05:02:50;;;;;;;;;;;10.80;99.90;;;;;;4967986;28;20001;-81
2021/10/14 05:05:16;;;;;;;;;;;10.80;99.90;;;;;;4964559;28;19921;-81
2021/10/14 05:07:41;;;;;;;;;;;10.80;99.90;;;;;;4966016;28;19922;-81
2021/10/14 05:10:07;;;;;;;;;;;10.90;99.90;;;;;;4964643;28;19918;-81
2021/10/14 05:12:33;;;;;;;;;;;10.80;1.00;;;;;;4972063;28;20335;-81
2021/10/14 05:14:59;;;;;;;;;;;10.80;1.00;;;;;;4964181;28;19918;-81
2021/10/14 05:17:24;;;;;;;;;;;10.80;1.00;;;;;;4955239;28;19914;-81
2021/10/14 05:19:50;;;;;;;;;;;10.80;1.00;;;;;;4964066;28;20397;-81
2021/10/14 05:22:15;;;;;;;;;;;10.70;1.00;;;;;;4971798;28;20499;-81
2021/10/14 05:24:40;;;;;;;;;;;10.70;1.00;;;;;;4966378;28;19918;-81
2021/10/14 05:27:06;;;;;;;;;;;10.70;1.00;;;;;;4970024;28;19911;-81
2021/10/14 05:29:31;;;;;;;;;;;10.60;1.00;;;;;;4967363;28;19914;-81
2021/10/14 05:31:57;;;;;;;;;;;10.60;1.00;;;;;;4963741;28;20014;-81
2021/10/14 05:34:22;;;;;;;;;;;10.60;1.00;;;;;;4961082;29;20365;-81
2021/10/14 05:36:48;;;;;;;;;;;10.60;1.00;;;;;;4968808;28;19961;-81
2021/10/14 05:39:13;;;;;;;;;;;10.50;1.00;;;;;;4964885;28;19981;-80
2021/10/14 05:41:39;;;;;;;;;;;10.60;1.00;;;;;;4962261;28;19960;-81
2021/10/14 05:44:04;;;;;;;;;;;10.60;1.00;;;;;;5000862;28;19918;-81
2021/10/14 05:46:29;;;;;;;;;;;10.60;1.00;;;;;;4963010;28;19915;-80
2021/10/14 05:48:55;;;;;;;;;;;10.60;1.00;;;;;;4950600;28;19920;-81
2021/10/14 05:51:20;;;;;;;;;;;10.60;1.00;;;;;;4955279;28;19923;-81
2021/10/14 05:53:46;;;;;;;;;;;10.60;1.00;;;;;;4967143;28;20156;-81
2021/10/14 05:56:11;;;;;;;;;;;10.60;1.00;;;;;;4974146;28;19910;-80
2021/10/14 05:58:37;;;;;;;;;;;10.60;1.00;;;;;;4945973;28;19961;-81
2021/10/14 06:01:02;;;;;;;;;;;10.60;1.00;;;;;;4946763;29;20009;-81
2021/10/14 06:03:28;;;;;;;;;;;10.70;1.00;;;;;;4964115;28;19925;-81
2021/10/14 06:05:53;;;;;;;;;;;10.60;1.00;;;;;;4960831;28;19914;-82
2021/10/14 06:08:19;;;;;;;;;;;10.60;1.00;;;;;;4958973;28;19938;-81
2021/10/14 06:10:44;;;;;;;;;;;10.60;1.00;;;;;;4971441;28;19926;-81
2021/10/14 06:13:09;;;;;;;;;;;10.60;1.00;;;;;;4973192;28;19910;-81
2021/10/14 06:15:35;;;;;;;;;;;10.60;1.00;;;;;;4956382;29;19910;-81
2021/10/14 06:18:00;;;;;;;;;;;10.60;1.00;;;;;;4962214;28;19964;-82
2021/10/14 06:20:26;;;;;;;;;;;10.60;1.00;;;;;;4957856;28;19923;-82
2021/10/14 06:22:51;;;;;;;;;;;10.60;1.00;;;;;;4974137;28;20055;-81
2021/10/14 06:25:17;;;;;;;;;;;10.60;1.00;;;;;;4975737;28;19917;-81
2021/10/14 06:27:42;;;;;;;;;;;10.60;1.00;;;;;;4976539;28;19910;-82
2021/10/14 06:30:08;;;;;;;;;;;10.60;1.00;;;;;;4969217;28;19964;-81
2021/10/14 06:32:33;;;;;;;;;;;10.60;1.00;;;;;;4964959;28;19917;-81
2021/10/14 06:34:59;;;;;;;;;;;10.60;1.00;;;;;;4953978;29;19918;-81
2021/10/14 06:37:24;;;;;;;;;;;10.60;1.00;;;;;;4964144;28;19957;-82
2021/10/14 06:39:49;;;;;;;;;;;10.60;1.00;;;;;;4955456;28;19910;-81
2021/10/14 06:42:15;;;;;;;;;;;10.60;1.00;;;;;;4965248;28;19915;-81
2021/10/14 06:44:40;;;;;;;;;;;10.70;1.00;;;;;;4966816;28;19925;-82
2021/10/14 06:47:06;;;;;;;;;;;10.70;1.00;;;;;;4964417;28;19918;-82
2021/10/14 06:49:31;;;;;;;;;;;10.70;1.00;;;;;;4963527;28;19976;-82
2021/10/14 06:51:57;;;;;;;;;;;10.70;1.00;;;;;;4967220;28;20374;-81
2021/10/14 06:54:23;;;;;;;;;;;10.60;1.00;;;;;;4948322;28;19925;-81
2021/10/14 06:56:48;;;;;;;;;;;10.70;1.00;;;;;;4956100;28;19971;-82
2021/10/14 06:59:14;;;;;;;;;;;10.80;1.00;;;;;;4967091;28;19910;-82
2021/10/14 07:01:39;;;;;;;;;;;10.80;1.00;;;;;;4954528;28;19922;-81
2021/10/14 07:04:05;;;;;;;;;;;10.80;1.00;;;;;;4961404;28;19914;-82
2021/10/14 07:06:30;;;;;;;;;;;10.90;1.00;;;;;;4945214;28;20383;-82
2021/10/14 07:08:56;;;;;;;;;;;10.90;1.00;;;;;;4960638;29;20017;-81
2021/10/14 07:11:22;;;;;;;;;;;11.00;1.00;;;;;;4959621;29;19914;-82
2021/10/14 07:13:47;;;;;;;;;;;10.90;1.00;;;;;;4958745;28;19993;-82
2021/10/14 07:16:13;;;;;;;;;;;11.00;1.00;;;;;;4959271;29;19945;-81
2021/10/14 07:18:38;;;;;;;;;;;11.10;1.00;;;;;;4957719;28;19965;-82
2021/10/14 07:21:04;;;;;;;;;;;10.90;1.00;;;;;;4966278;28;19921;-82
2021/10/14 07:23:29;;;;;;;;;;;10.90;1.00;;;;;;4968413;28;19921;-81
2021/10/14 07:25:55;;;;;;;;;;;10.90;1.00;;;;;;4965866;28;19997;-82
2021/10/14 07:28:20;;;;;;;;;;;10.90;1.00;;;;;;4948572;28;19966;-80
2021/10/14 07:30:46;;;;;;;;;;;11.00;1.00;;;;;;4949242;28;19985;-81
2021/10/14 07:33:11;;;;;;;;;;;11.00;1.00;;;;;;4955963;28;19922;-82
2021/10/14 07:35:38;;;;;;;;;;;11.10;1.00;;;;;;4964595;28;19915;-82
2021/10/14 07:38:04;;;;;;;;;;;11.10;1.00;;;;;;4950985;28;19914;-82
2021/10/14 07:40:31;;;;;;;;;;;11.20;1.00;;;;;;4958913;28;19968;-81
2021/10/14 07:42:56;;;;;;;;;;;11.30;1.00;;;;;;4953857;28;20435;-82
2021/10/14 07:45:21;;;;;;;;;;;11.40;1.00;;;;;;4965848;28;19918;-82
2021/10/14 07:47:47;;;;;;;;;;;11.40;1.00;;;;;;4955600;28;19937;-80
2021/10/14 07:50:13;;;;;;;;;;;11.60;1.00;;;;;;4958658;28;19914;-81
2021/10/14 07:52:41;;;;;;;;;;;11.70;1.00;;;;;;4959579;28;20501;-82
2021/10/14 07:55:07;;;;;;;;;;;11.60;1.00;;;;;;4966596;28;20370;-81
2021/10/14 07:57:33;;;;;;;;;;;11.70;1.00;;;;;;4959463;28;19915;-81
2021/10/14 07:59:58;;;;;;;;;;;11.70;1.00;;;;;;4961115;28;20544;-81
2021/10/14 08:02:24;;;;;;;;;;;11.70;1.00;;;;;;4955210;28;19922;-81
2021/10/14 08:04:52;;;;;;;;;;;11.80;1.00;;;;;;4962904;28;19914;-81
2021/10/14 08:07:18;;;;;;;;;;;11.80;1.00;;;;;;4945272;28;20407;-82
2021/10/14 08:09:44;;;;;;;;;;;11.70;1.00;;;;;;4962079;28;19976;-81
2021/10/14 08:12:11;;;;;;;;;;;11.70;1.00;;;;;;4953715;28;20168;-82
2021/10/14 08:14:36;;;;;;;;;;;11.70;1.00;;;;;;4959594;28;22231;-79
2021/10/14 08:17:02;;;;;;;;;;;11.60;1.00;;;;;;4946962;28;20006;-81
2021/10/14 08:19:27;;;;;;;;;;;11.60;1.00;;;;;;4959771;28;19914;-81
2021/10/14 08:21:53;;;;;;;;;;;11.60;1.00;;;;;;4954385;28;19918;-82
2021/10/14 08:24:20;;;;;;;;;;;11.70;1.00;;;;;;4954907;28;19933;-81
2021/10/14 08:26:47;;;;;;;;;;;11.70;1.00;;;;;;4934406;28;21463;-80
2021/10/14 08:29:12;;;;;;;;;;;11.70;1.00;;;;;;4959517;28;19968;-82
2021/10/14 08:31:38;;;;;;;;;;;11.70;1.00;;;;;;4963717;28;19918;-81
2021/10/14 08:34:03;;;;;;;;;;;11.70;1.00;;;;;;4954514;28;19993;-80
2021/10/14 08:36:29;;;;;;;;;;;11.80;1.00;;;;;;4965249;28;19937;-82
2021/10/14 08:38:55;;;;;;;;;;;11.90;1.00;;;;;;4962719;28;19914;-82
2021/10/14 08:41:20;;;;;;;;;;;12.00;1.00;;;;;;4964457;28;19921;-82
2021/10/14 08:43:47;;;;;;;;;;;12.00;1.00;;;;;;4960753;28;20367;-83
2021/10/14 08:46:12;;;;;;;;;;;12.00;1.00;;;;;;4964281;28;19989;-82
2021/10/14 08:48:38;;;;;;;;;;;12.00;1.00;;;;;;4958901;28;20398;-82
2021/10/14 08:51:03;;;;;;;;;;;11.90;1.00;;;;;;4949540;28;19914;-82
2021/10/14 08:53:29;;;;;;;;;;;12.00;1.00;;;;;;4956248;28;19941;-82
2021/10/14 08:55:55;;;;;;;;;;;12.10;1.00;;;;;;4956222;28;19950;-82
2021/10/14 08:58:20;;;;;;;;;;;12.20;1.00;;;;;;4948232;28;19915;-82
2021/10/14 09:01:04;;;;;;;;;;;12.50;1.00;;;;;;4966085;28;19915;-82
2021/10/14 09:03:30;;;;;;;;;;;12.70;1.00;;;;;;4962074;28;19918;-82
2021/10/14 09:05:56;;;;;;;;;;;12.80;99.90;;;;;;4956222;28;20401;-82
2021/10/14 09:08:40;;;;;;;;;;;12.90;99.90;;;;;;4956665;28;19914;-81
2021/10/14 09:11:21;;;;;;;;;;;13.00;99.90;;;;;;4956778;28;19918;-82
2021/10/14 09:13:48;;;;;;;;;;;13.00;93.50;;;;;;4944552;28;19914;-81
2021/10/14 09:16:52;;;;;;;;;;;13.00;1.00;;;;;;4955564;28;19914;-82
2021/10/14 09:19:18;;;;;;;;;;;13.10;1.00;;;;;;4905262;28;19973;-83
2021/10/14 09:21:45;;;;;;;;;;;13.10;1.00;;;;;;4914099;28;19919;-81
2021/10/14 09:24:29;;;;;;;;;;;13.30;1.00;;;;;;4928857;28;19918;-81
2021/10/14 09:26:55;;;;;;;;;;;13.40;1.00;;;;;;4963000;28;20014;-81
2021/10/14 09:29:22;;;;;;;;;;;13.40;99.90;;;;;;4963968;28;20366;-81
2021/10/14 09:31:49;;;;;;;;;;;13.50;99.90;;;;;;4970615;28;19914;-82
2021/10/14 09:34:33;;;;;;;;;;;13.60;99.90;;;;;;4962558;28;19915;-81
2021/10/14 09:37:00;;;;;;;;;;;13.60;1.00;;;;;;4933598;28;19918;-81
2021/10/14 09:39:25;;;;;;;;;;;13.70;1.00;;;;;;4961790;28;19921;-81
2021/10/14 09:41:52;;;;;;;;;;;13.70;99.90;;;;;;4942463;28;19993;-81
2021/10/14 09:44:19;;;;;;;;;;;13.80;99.90;;;;;;4958797;28;19918;-81
2021/10/14 09:46:47;;;;;;;;;;;13.80;99.90;;;;;;4944640;28;19914;-81
2021/10/14 09:49:21;;;;;;;;;;;13.80;99.90;;;;;;4960951;28;19992;-82
2021/10/14 09:51:46;;;;;;;;;;;13.80;99.90;;;;;;4945784;28;19921;-82
2021/10/14 09:54:12;;;;;;;;;;;13.80;97.50;;;;;;4966996;28;20390;-82
2021/10/14 09:56:38;;;;;;;;;;;13.80;1.00;;;;;;4965969;28;19922;-81
2021/10/14 09:59:03;;;;;;;;;;;13.90;1.00;;;;;;4965090;28;19922;-81
2021/10/14 10:01:37;;;;;;;;;;;13.90;1.00;;;;;;4948826;28;19921;-81
2021/10/14 10:04:04;;;;;;;;;;;13.90;99.90;;;;;;4965557;28;20375;-81
2021/10/14 10:06:30;;;;;;;;;;;14.00;44.90;;;;;;4949899;28;19915;-81
2021/10/14 10:08:58;;;;;;;;;;;14.00;61.60;;;;;;4961126;28;19914;-81
2021/10/14 10:11:24;;;;;;;;;;;14.00;30.90;;;;;;4961749;28;19914;-81
2021/10/14 10:13:51;;;;;;;;;;;14.10;27.80;;;;;;4951841;28;19997;-80
2021/10/14 10:16:19;;;;;;;;;;;14.10;1.00;;;;;;4965230;28;20347;-81
2021/10/14 10:18:46;;;;;;;;;;;14.10;1.00;;;;;;4966664;28;19942;-81
2021/10/14 10:21:30;;;;;;;;;;;14.10;1.00;;;;;;4963348;28;19926;-81
2021/10/14 10:23:59;;;;;;;;;;;14.10;1.00;;;;;;4955688;28;19972;-80
2021/10/14 10:26:36;;;;;;;;;;;14.10;99.90;;;;;;4959939;28;19914;-81
2021/10/14 10:29:16;;;;;;;;;;;14.00;99.90;;;;;;4940252;29;19915;-80
2021/10/14 10:34:28;;;;;;;;;;;14.00;99.90;;;;;;4962909;28;20298;-81
2021/10/14 10:36:54;;;;;;;;;;;14.00;1.00;;;;;;4962208;28;20333;-80
2021/10/14 10:39:38;;;;;;;;;;;14.10;1.00;;;;;;4963139;28;19936;-80
2021/10/14 10:42:14;;;;;;;;;;;14.10;1.00;;;;;;4963956;28;19906;-81
2021/10/14 10:44:40;;;;;;;;;;;14.20;1.00;;;;;;4947091;28;19928;-81
2021/10/14 10:47:25;;;;;;;;;;;14.30;1.00;;;;;;4966230;28;19960;-81
2021/10/14 10:49:54;;;;;;;;;;;14.30;1.00;;;;;;4966569;28;19974;-81
2021/10/14 10:52:33;;;;;;;;;;;14.40;99.90;;;;;;4962343;28;19914;-80
2021/10/14 10:54:59;;;;;;;;;;;14.40;99.90;;;;;;4943484;28;19979;-81
2021/10/14 10:57:44;;;;;;;;;;;14.50;99.90;;;;;;4965216;28;19914;-81
2021/10/14 11:00:10;;;;;;;;;;;14.50;9.50;;;;;;4957925;28;19925;-80
2021/10/14 11:02:35;;;;;;;;;;;14.50;1.00;;;;;;4942880;28;19910;-80
2021/10/14 11:05:01;;;;;;;;;;;14.60;10.40;;;;;;4946416;28;20275;-81
2021/10/14 11:07:27;;;;;;;;;;;14.70;1.00;;;;;;4943282;28;19922;-81
2021/10/14 11:09:52;;;;;;;;;;;14.80;1.00;;;;;;4944232;28;19918;-80
2021/10/14 11:12:17;;;;;;;;;;;14.90;1.00;;;;;;4958697;28;20025;-80
2021/10/14 11:14:43;;;;;;;;;;;15.00;99.90;;;;;;4954383;28;19922;-80
2021/10/14 11:17:09;;;;;;;;;;;15.20;99.90;;;;;;4966272;28;20305;-80
2021/10/14 11:19:38;;;;;;;;;;;15.30;99.90;;;;;;4965298;28;20386;-79
2021/10/14 11:22:30;;;;;;;;;;;15.50;1.00;;;;;;4959545;28;20401;-80
2021/10/14 11:25:00;;;;;;;;;;;15.60;1.00;;;;;;4949631;28;19940;-80
2021/10/14 11:27:26;;;;;;;;;;;15.90;1.00;;;;;;4958449;28;19964;-80
2021/10/14 11:29:52;;;;;;;;;;;16.10;99.90;;;;;;4956394;28;19922;-80
2021/10/14 11:32:23;;;;;;;;;;;16.40;99.90;;;;;;4953078;28;20341;-80
2021/10/14 11:34:48;;;;;;;;;;;16.80;91.90;;;;;;4947383;28;20374;-80
2021/10/14 11:37:14;;;;;;;;;;;17.00;1.00;;;;;;4959533;28;19914;-80
2021/10/14 11:39:39;;;;;;;;;;;17.50;1.00;;;;;;4958779;28;19914;-80
2021/10/14 11:42:08;;;;;;;;;;;17.90;99.90;;;;;;4967613;28;19939;-80
2021/10/14 11:44:36;;;;;;;;;;;18.30;99.90;;;;;;4963327;28;19926;-80
2021/10/14 11:47:02;;;;;;;;;;;18.60;99.90;;;;;;4944444;28;19918;-80
2021/10/14 11:49:28;;;;;;;;;;;18.80;99.90;;;;;;4965318;28;19917;-80
2021/10/14 11:51:53;;;;;;;;;;;19.10;66.00;;;;;;4966856;28;20517;-80
2021/10/14 11:54:19;;;;;;;;;;;19.20;22.90;;;;;;4943661;28;19922;-80
2021/10/14 11:56:46;;;;;;;;;;;19.40;1.00;;;;;;4963536;28;20290;-80
2021/10/14 11:59:13;;;;;;;;;;;19.70;1.00;;;;;;4946183;28;19938;-80
2021/10/14 12:01:42;;;;;;;;;;;20.10;1.00;;;;;;4938104;28;19961;-80
2021/10/14 12:04:08;;;;;;;;;;;20.40;1.00;;;;;;4962668;28;19919;-80
2021/10/14 12:06:35;;;;;;;;;;;20.50;1.00;;;;;;4962153;28;19922;-81
2021/10/14 12:09:01;;;;;;;;;;;20.50;1.00;;;;;;4960213;28;20010;-80
2021/10/14 12:11:26;;;;;;;;;;;20.70;1.00;;;;;;4961944;28;19954;-81
2021/10/14 12:13:55;;;;;;;;;;;20.70;1.00;;;;;;4955519;28;19918;-82
2021/10/14 12:16:21;;;;;;;;;;;20.70;1.00;;;;;;4957448;28;19915;-81
2021/10/14 12:18:46;;;;;;;;;;;20.50;1.00;;;;;;4958738;28;19931;-82
2021/10/14 12:21:27;;;;;;;;;;;20.40;1.00;;;;;;4952239;28;19915;-82
2021/10/14 12:24:01;;;;;;;;;;;20.40;1.00;;;;;;4956592;28;19957;-82
2021/10/14 12:26:32;;;;;;;;;;;20.30;1.00;;;;;;4943020;29;20306;-82
2021/10/14 12:29:17;;;;;;;;;;;20.30;1.00;;;;;;4936977;29;19919;-82
2021/10/14 12:31:43;;;;;;;;;;;20.00;1.00;;;;;;4956350;29;19910;-83
2021/10/14 12:34:08;;;;;;;;;;;19.60;1.00;;;;;;4954456;29;19921;-83
2021/10/14 12:36:47;;;;;;;;;;;19.30;1.00;;;;;;4954952;29;19925;-82
2021/10/14 12:39:22;;;;;;;;;;;19.10;1.00;;;;;;4953779;28;19926;-82
2021/10/14 12:41:52;;;;;;;;;;;18.90;1.00;;;;;;4937576;29;19922;-82
2021/10/14 12:44:18;;;;;;;;;;;18.90;1.00;;;;;;4954730;28;19923;-82
2021/10/14 12:46:58;;;;;;;;;;;19.20;1.00;;;;;;4938130;28;19946;-83
2021/10/14 12:51:50;;;;;;;;;;;20.70;1.00;;;;;;4953515;28;19910;-81
2021/10/14 12:54:17;;;;;;;;;;;21.30;1.00;;;;;;4954165;28;19942;-81
2021/10/14 12:56:44;;;;;;;;;;;21.50;1.00;;;;;;4952894;28;19921;-82
2021/10/14 12:59:11;;;;;;;;;;;21.70;1.00;;;;;;4940171;29;19915;-82
2021/10/14 13:01:41;;;;;;;;;;;21.50;1.00;;;;;;4948071;28;19910;-82
2021/10/14 13:04:07;;;;;;;;;;;21.30;1.00;;;;;;4976249;28;19935;-82
2021/10/14 13:06:33;;;;;;;;;;;21.10;1.00;;;;;;4967558;28;19910;-81
2021/10/14 13:09:03;;;;;;;;;;;20.90;1.00;;;;;;4973143;28;19963;-81
2021/10/14 13:11:33;;;;;;;;;;;20.60;1.00;;;;;;4956109;28;19914;-81
2021/10/14 13:13:59;;;;;;;;;;;20.40;1.00;;;;;;4961015;28;19980;-81
2021/10/14 13:16:25;;;;;;;;;;;20.20;1.00;;;;;;4947162;29;19914;-82
2021/10/14 13:18:51;;;;;;;;;;;19.90;1.00;;;;;;4959792;28;19911;-82
2021/10/14 13:21:16;;;;;;;;;;;19.70;1.00;;;;;;4959715;28;19914;-82
2021/10/14 13:23:42;;;;;;;;;;;19.50;1.00;;;;;;4963038;28;19956;-82
2021/10/14 13:26:07;;;;;;;;;;;19.40;1.00;;;;;;4957685;29;19918;-82
2021/10/14 13:28:34;;;;;;;;;;;19.20;1.00;;;;;;4952167;28;19910;-82
2021/10/14 13:31:00;;;;;;;;;;;19.10;1.00;;;;;;4968768;28;19941;-82
2021/10/14 13:33:28;;;;;;;;;;;18.90;1.00;;;;;;4975565;28;19915;-82
2021/10/14 13:35:53;;;;;;;;;;;18.70;1.00;;;;;;4941411;28;20359;-82
2021/10/14 13:38:19;;;;;;;;;;;18.60;1.00;;;;;;4961463;28;19915;-82
2021/10/14 13:40:53;;;;;;;;;;;18.50;1.00;;;;;;4972755;28;19918;-82
2021/10/14 13:43:31;;;;;;;;;;;18.40;1.00;;;;;;4949177;28;20291;-82
2021/10/14 13:45:56;;;;;;;;;;;18.30;1.00;;;;;;4960337;28;19914;-82
2021/10/14 13:48:22;;;;;;;;;;;18.30;1.00;;;;;;4964969;28;19914;-82
2021/10/14 13:50:47;;;;;;;;;;;18.20;1.00;;;;;;4966426;28;19918;-82
2021/10/14 13:53:13;;;;;;;;;;;18.30;1.00;;;;;;4961702;28;20439;-81
2021/10/14 13:55:39;;;;;;;;;;;18.20;1.00;;;;;;4957943;28;20017;-82
2021/10/14 13:58:04;;;;;;;;;;;18.20;1.00;;;;;;4949073;28;19917;-82
2021/10/14 14:00:30;;;;;;;;;;;18.20;1.00;;;;;;4954506;28;19940;-81
2021/10/14 14:02:55;;;;;;;;;;;18.20;1.00;;;;;;4958553;28;19957;-82
2021/10/14 14:05:21;;;;;;;;;;;18.20;1.00;;;;;;4964303;28;19973;-82
2021/10/14 14:07:46;;;;;;;;;;;18.20;1.00;;;;;;4964055;28;19975;-82
2021/10/14 14:10:12;;;;;;;;;;;18.20;1.00;;;;;;4961262;28;19931;-82
2021/10/14 14:12:38;;;;;;;;;;;18.20;1.00;;;;;;4969183;28;19918;-81
2021/10/14 14:15:04;;;;;;;;;;;18.20;1.00;;;;;;4954487;28;20020;-82
2021/10/14 14:17:29;;;;;;;;;;;18.20;1.00;;;;;;4972346;28;19914;-82
2021/10/14 14:19:55;;;;;;;;;;;18.10;1.00;;;;;;4960355;28;19922;-82
2021/10/14 14:22:20;;;;;;;;;;;18.00;1.00;;;;;;4968626;28;19921;-82
2021/10/14 14:24:46;;;;;;;;;;;17.90;1.00;;;;;;4964818;28;19919;-82
2021/10/14 14:27:11;;;;;;;;;;;17.80;1.00;;;;;;4967928;28;19957;-81
2021/10/14 14:29:36;;;;;;;;;;;17.70;1.00;;;;;;4965443;28;19926;-81